Time;durP1;ratioP1;P1;durP2;ratioP2;P2;SDS_P1;SDS_P2;PMS_P1;PMS_P2;Temp;Humidity;BMP_temperature;BMP_pressure;BME280_temperature;BME280_humidity;BME280_pressure;Samples;Min_cycle;Max_cycle;Signal;HPM_P1;HPM_P2
2023/09/23 00:01:32;;;;;;;1.80;1.70;;;;;;;14.48;100.00;152323.47;10457504;28;20040;-71
2023/09/23 00:06:34;;;;;;;2.40;2.20;;;;;;;14.25;100.00;152266.44;10456689;28;20045;-71
2023/09/23 00:11:37;;;;;;;2.38;2.15;;;;;;;14.45;100.00;152315.66;10456479;28;20401;-71
2023/09/23 00:16:39;;;;;;;2.50;2.30;;;;;;;14.26;100.00;152267.78;10457191;28;20103;-71
2023/09/23 00:21:40;;;;;;;2.50;2.30;;;;;;;14.19;100.00;152249.63;10439258;28;20044;-69
2023/09/23 00:26:43;;;;;;;2.67;2.47;;;;;;;14.09;100.00;152225.03;10438138;28;20080;-71
2023/09/23 00:31:45;;;;;;;2.38;2.17;;;;;;;14.08;100.00;152223.75;10444048;28;20041;-71
2023/09/23 00:36:47;;;;;;;1.83;1.70;;;;;;;14.09;100.00;152226.34;10447292;28;20049;-70
2023/09/23 00:41:49;;;;;;;2.10;1.90;;;;;;;14.35;100.00;152291.09;10445807;28;20049;-70
2023/09/23 00:46:51;;;;;;;1.88;1.77;;;;;;;14.43;100.00;152311.75;10463856;28;20485;-70
2023/09/23 00:51:53;;;;;;;2.88;2.42;;;;;;;14.35;100.00;152292.38;10462721;28;20032;-70
2023/09/23 00:56:58;;;;;;;3.03;2.40;;;;;;;14.04;100.00;152212.09;10446715;28;20044;-70
2023/09/23 01:02:01;;;;;;;2.20;1.95;;;;;;;13.87;100.00;152170.66;10462792;28;20448;-70
2023/09/23 01:07:02;;;;;;;2.17;1.98;;;;;;;13.67;100.00;152118.88;10443909;28;20144;-70
2023/09/23 01:12:07;;;;;;;3.00;2.80;;;;;;;13.48;100.00;152071.03;10461885;28;20044;-70
2023/09/23 01:17:10;;;;;;;2.45;2.25;;;;;;;13.45;100.00;152063.25;10444035;28;20053;-69
2023/09/23 01:22:12;;;;;;;1.95;1.77;;;;;;;13.60;100.00;152100.78;10464027;28;20674;-70
2023/09/23 01:27:18;;;;;;;2.63;2.42;;;;;;;13.44;100.00;152059.38;10461030;28;20040;-70
2023/09/23 01:32:35;;;;;;;2.17;1.98;;;;;;;13.20;100.00;151998.53;10442914;28;20131;-70
2023/09/23 01:37:37;;;;;;;2.55;2.35;;;;;;;13.27;100.00;152017.97;10444731;28;20060;-71
2023/09/23 01:42:39;;;;;;;2.83;2.60;;;;;;;13.44;100.00;152059.38;10461411;28;20063;-71
2023/09/23 01:47:41;;;;;;;2.53;2.33;;;;;;;13.03;100.00;151957.13;10442609;28;20084;-71
2023/09/23 01:52:45;;;;;;;3.42;2.70;;;;;;;13.11;100.00;151976.53;10460506;28;20448;-71
2023/09/23 01:57:50;;;;;;;2.47;2.28;;;;;;;13.01;100.00;151951.91;10459227;28;20048;-71
2023/09/23 02:02:55;;;;;;;2.83;2.63;;;;;;;13.08;100.00;151970.06;10442959;28;20048;-71
2023/09/23 02:07:59;;;;;;;2.83;2.58;;;;;;;12.98;100.00;151944.19;10460934;28;20463;-70
2023/09/23 02:13:00;;;;;;;2.80;2.60;;;;;;;13.03;100.00;151957.13;10441365;28;20056;-71
2023/09/23 02:18:04;;;;;;;2.83;2.55;;;;;;;12.98;100.00;151944.19;10458851;28;20079;-70
2023/09/23 02:23:06;;;;;;;3.28;3.00;;;;;;;12.89;100.00;151920.91;10441328;28;20511;-70
2023/09/23 02:28:09;;;;;;;2.55;2.35;;;;;;;12.77;100.00;151891.16;10460835;28;20044;-70
2023/09/23 02:33:12;;;;;;;2.90;2.40;;;;;;;12.63;100.00;151854.94;10440828;28;20139;-70
2023/09/23 02:38:14;;;;;;;2.63;2.42;;;;;;;12.60;100.00;151848.47;10440453;28;20067;-70
2023/09/23 02:43:20;;;;;;;2.80;2.60;;;;;;;12.70;100.00;151873.03;10458168;28;20041;-70
2023/09/23 02:48:22;;;;;;;2.87;2.60;;;;;;;12.48;100.00;151817.44;10460903;28;20061;-70
2023/09/23 02:53:24;;;;;;;3.38;3.08;;;;;;;12.60;100.00;151847.19;10421980;28;20302;-70
2023/09/23 02:58:26;;;;;;;3.03;2.83;;;;;;;12.45;100.00;151809.69;10457262;28;20045;-70
2023/09/23 03:03:27;;;;;;;3.90;2.13;;;;;;;12.24;100.00;151755.38;10456801;28;20041;-70
2023/09/23 03:08:30;;;;;;;2.22;2.03;;;;;;;12.28;100.00;151767.03;10440820;28;20044;-70
2023/09/23 03:13:34;;;;;;;1.63;1.30;;;;;;;12.15;100.00;151732.13;10458008;28;20044;-70
2023/09/23 03:18:42;;;;;;;1.48;1.30;;;;;;;12.25;100.00;151759.25;10438900;28;20041;-70
2023/09/23 03:23:44;;;;;;;1.60;1.23;;;;;;;12.21;100.00;151748.91;10457622;28;20082;-70
2023/09/23 03:28:46;;;;;;;1.30;0.95;;;;;;;12.17;100.00;151737.28;10458324;28;20061;-70
2023/09/23 03:33:49;;;;;;;0.70;0.70;;;;;;;12.31;100.00;151773.50;10456779;28;20095;-70
2023/09/23 03:38:51;;;;;;;1.05;0.80;;;;;;;12.22;100.00;151751.53;10438493;28;20049;-70
2023/09/23 03:43:53;;;;;;;0.98;0.40;;;;;;;12.17;100.00;151737.28;10438849;28;20060;-69
2023/09/23 03:48:55;;;;;;;0.40;0.30;;;;;;;12.31;100.00;151774.81;10439451;28;20045;-72
2023/09/23 03:53:57;;;;;;;0.38;0.20;;;;;;;12.30;100.00;151772.16;10458401;28;20112;-71
2023/09/23 03:59:00;;;;;;;0.95;0.28;;;;;;;12.41;100.00;151798.06;10439770;28;20132;-69
2023/09/23 04:04:07;;;;;;;0.30;0.30;;;;;;;12.46;98.99;151811.00;10440073;28;20052;-70
2023/09/23 04:09:13;;;;;;;0.32;0.25;;;;;;;12.86;92.48;151914.44;10429999;28;20045;-70
2023/09/23 04:14:15;;;;;;;0.85;0.35;;;;;;;13.02;90.35;151954.56;10466127;28;20120;-70
2023/09/23 04:19:16;;;;;;;0.43;0.20;;;;;;;13.18;88.91;151994.63;10464571;28;20076;-70
2023/09/23 04:24:18;;;;;;;0.20;0.20;;;;;;;13.14;88.69;151985.56;10445540;28;20420;-70
2023/09/23 04:29:20;;;;;;;0.10;0.10;;;;;;;12.96;90.42;151939.00;10463203;28;20056;-71
2023/09/23 04:34:24;;;;;;;0.30;0.30;;;;;;;12.97;89.88;151940.28;10447266;28;20045;-71
2023/09/23 04:39:25;;;;;;;0.82;0.10;;;;;;;13.14;87.26;151985.56;10445992;28;20053;-71
2023/09/23 04:44:27;;;;;;;0.32;0.20;;;;;;;13.19;85.49;151997.19;10444905;28;20075;-70
2023/09/23 04:49:29;;;;;;;0.20;0.10;;;;;;;13.30;84.04;152024.44;10462154;28;20096;-70
2023/09/23 04:54:31;;;;;;;0.40;0.28;;;;;;;13.44;82.59;152059.38;10444372;28;20139;-70
2023/09/23 04:59:32;;;;;;;0.55;0.20;;;;;;;13.19;84.52;151997.19;10463586;28;20049;-70
2023/09/23 05:04:34;;;;;;;0.52;0.20;;;;;;;13.16;84.29;151989.47;10462252;28;20048;-71
2023/09/23 05:09:37;;;;;;;0.55;0.20;;;;;;;12.98;85.67;151942.91;10461852;28;20056;-70
2023/09/23 05:14:42;;;;;;;0.05;0.05;;;;;;;12.82;86.38;151904.06;10461024;28;20408;-71
2023/09/23 05:19:47;;;;;;;1.40;0.22;;;;;;;13.01;84.12;151951.91;10445254;28;20041;-71
2023/09/23 05:24:56;;;;;;;0.20;0.20;;;;;;;13.23;82.88;152006.31;10460565;28;20067;-69
2023/09/23 05:29:58;;;;;;;0.22;0.20;;;;;;;13.28;82.33;152020.59;10436316;28;20159;-70
2023/09/23 05:35:00;;;;;;;0.45;0.22;;;;;;;13.12;83.38;151979.13;10460620;28;20579;-70
2023/09/23 05:40:27;;;;;;;0.25;0.10;;;;;;;13.37;82.38;152043.88;10462165;28;20045;-70
2023/09/23 05:45:25;;;;;;;0.50;0.30;;;;;;;13.60;80.38;152102.09;10461037;28;20425;-71
2023/09/23 05:50:27;;;;;;;0.47;0.17;;;;;;;13.57;80.95;152094.31;10444293;28;20083;-69
2023/09/23 05:55:31;;;;;;;1.08;0.30;;;;;;;13.58;80.04;152096.88;10460360;28;20049;-70
2023/09/23 06:00:33;;;;;;;0.35;0.20;;;;;;;13.83;78.71;152160.31;10444498;28;20053;-70
2023/09/23 06:05:35;;;;;;;0.50;0.15;;;;;;;13.94;77.22;152186.19;10442649;28;20041;-70
2023/09/23 06:10:38;;;;;;;0.30;0.20;;;;;;;14.10;76.06;152228.91;10442891;28;20045;-71
2023/09/23 06:15:40;;;;;;;0.10;0.10;;;;;;;14.19;74.94;152249.63;10442487;28;20047;-69
2023/09/23 06:20:42;;;;;;;0.80;0.10;;;;;;;14.22;73.83;152258.69;10459834;28;20127;-70
2023/09/23 06:25:52;;;;;;;0.20;0.10;;;;;;;14.34;72.23;152288.44;10442447;28;20061;-71
2023/09/23 06:30:54;;;;;;;0.60;0.20;;;;;;;14.44;72.68;152313.09;10458921;28;20115;-70
2023/09/23 06:36:00;;;;;;;1.02;0.17;;;;;;;14.50;70.98;152329.94;10457649;28;20033;-70
2023/09/23 06:41:02;;;;;;;0.77;0.20;;;;;;;14.53;70.82;152336.44;10459398;28;20092;-70
2023/09/23 06:46:07;;;;;;;0.15;0.10;;;;;;;14.71;68.82;152383.06;10460096;28;20485;-70
2023/09/23 06:51:09;;;;;;;0.10;0.10;;;;;;;14.55;69.36;152341.59;10458391;28;20049;-70
2023/09/23 06:56:10;;;;;;;0.20;0.10;;;;;;;14.55;70.11;152342.91;10458450;28;20040;-71
2023/09/23 07:01:12;;;;;;;0.20;0.10;;;;;;;14.49;68.73;152326.09;10457982;28;20045;-70
2023/09/23 07:06:14;;;;;;;0.15;0.15;;;;;;;14.48;70.48;152323.47;10442483;28;20045;-71
2023/09/23 07:11:16;;;;;;;0.30;0.20;;;;;;;14.44;71.40;152313.09;10459365;28;20036;-71
2023/09/23 07:16:18;;;;;;;0.22;0.10;;;;;;;14.44;69.50;152314.38;10457055;28;20041;-70
2023/09/23 07:21:20;;;;;;;0.10;0.10;;;;;;;14.54;69.72;152339.03;10439354;28;20044;-70
2023/09/23 07:26:22;;;;;;;0.10;0.10;;;;;;;14.56;68.21;152344.19;10457869;28;20505;-70
2023/09/23 07:31:24;;;;;;;0.93;0.20;;;;;;;14.53;68.73;152336.44;10457512;28;20132;-71
2023/09/23 07:36:26;;;;;;;0.45;0.43;;;;;;;14.82;67.13;152411.53;10439893;28;20048;-70
2023/09/23 07:41:27;;;;;;;0.38;0.20;;;;;;;15.00;66.63;152456.88;10462236;28;20041;-71
2023/09/23 07:46:29;;;;;;;0.13;0.10;;;;;;;15.08;65.10;152476.31;10464781;28;20045;-71
2023/09/23 07:51:31;;;;;;;0.10;0.10;;;;;;;15.14;65.19;152491.88;10466493;28;20051;-71
2023/09/23 07:56:33;;;;;;;0.45;0.10;;;;;;;15.26;62.85;152521.66;10464530;28;20051;-71
2023/09/23 08:01:35;;;;;;;0.10;0.10;;;;;;;15.32;64.90;152537.22;10464456;28;20099;-71
2023/09/23 08:06:37;;;;;;;0.13;0.13;;;;;;;15.46;62.11;152573.50;10446706;28;20504;-71
2023/09/23 08:11:40;;;;;;;0.47;0.10;;;;;;;15.50;63.08;152582.56;10465428;28;20116;-71
2023/09/23 08:16:41;;;;;;;0.00;0.00;;;;;;;15.38;63.32;152552.75;10465241;28;20485;-71
2023/09/23 08:21:45;;;;;;;0.10;0.10;;;;;;;15.47;62.57;152574.78;10465651;28;20049;-71
2023/09/23 08:26:47;;;;;;;0.22;0.10;;;;;;;15.36;62.98;152547.53;10483349;28;20188;-72
2023/09/23 08:31:50;;;;;;;0.08;0.08;;;;;;;15.51;61.67;152586.44;10490107;28;20045;-72
2023/09/23 08:36:52;;;;;;;0.15;0.10;;;;;;;15.56;63.61;152599.41;10494447;28;20214;-69
2023/09/23 08:41:57;;;;;;;0.10;0.10;;;;;;;16.11;62.97;152738.13;10475131;28;20076;-69
2023/09/23 08:46:59;;;;;;;0.05;0.03;;;;;;;16.21;58.70;152762.78;10463295;28;20052;-70
2023/09/23 08:52:02;;;;;;;0.10;0.10;;;;;;;16.21;60.10;152764.09;10464016;28;20044;-71
2023/09/23 08:57:05;;;;;;;0.10;0.10;;;;;;;16.07;60.34;152727.75;10465222;28;20477;-72
2023/09/23 09:02:07;;;;;;;0.25;0.10;;;;;;;16.25;59.67;152774.47;10463625;28;20045;-71
2023/09/23 09:07:09;;;;;;;0.10;0.10;;;;;;;16.34;60.05;152797.78;10445588;28;20033;-72
2023/09/23 09:12:11;;;;;;;0.05;0.05;;;;;;;16.37;59.03;152804.25;10462734;28;20041;-70
2023/09/23 09:17:14;;;;;;;0.10;0.10;;;;;;;16.31;58.27;152788.72;10462394;28;20404;-70
2023/09/23 09:22:19;;;;;;;0.30;0.10;;;;;;;16.18;60.05;152756.28;10464099;28;20103;-71
2023/09/23 09:27:21;;;;;;;0.10;0.10;;;;;;;16.48;58.59;152832.78;10461722;28;20051;-70
2023/09/23 09:32:31;;;;;;;0.20;0.00;;;;;;;16.68;57.45;152882.06;10461804;28;20124;-70
2023/09/23 09:37:35;;;;;;;0.10;0.10;;;;;;;17.00;58.38;152965.16;10461898;28;20477;-70
2023/09/23 09:42:39;;;;;;;0.25;0.10;;;;;;;17.20;57.81;153015.72;10464381;28;20041;-71
2023/09/23 09:47:45;;;;;;;0.30;0.10;;;;;;;17.08;57.12;152984.56;10462092;28;20076;-70
2023/09/23 09:52:47;;;;;;;0.20;0.20;;;;;;;17.05;57.11;152978.13;10444270;28;20047;-71
2023/09/23 09:57:50;;;;;;;0.20;0.10;;;;;;;17.21;57.59;153017.00;10462342;28;20079;-72
2023/09/23 10:03:12;;;;;;;0.10;0.10;;;;;;;17.80;55.78;153168.91;10462326;28;20412;-71
2023/09/23 10:08:24;;;;;;;0.30;0.28;;;;;;;17.95;52.51;153206.53;10459894;28;20045;-71
2023/09/23 10:13:31;;;;;;;0.47;0.20;;;;;;;18.18;52.92;153264.94;10459768;28;20091;-69
2023/09/23 10:18:35;;;;;;;0.10;0.10;;;;;;;17.94;54.73;153202.66;10441841;28;20049;-69
2023/09/23 10:23:41;;;;;;;0.13;0.10;;;;;;;17.73;52.30;153150.66;10442781;28;20100;-68
2023/09/23 10:28:45;;;;;;;0.55;0.20;;;;;;;18.22;53.59;153274.03;10441116;28;20079;-70
2023/09/23 10:33:47;;;;;;;0.30;0.15;;;;;;;18.26;52.33;153284.44;10439827;28;20480;-70
2023/09/23 10:38:49;;;;;;;0.10;0.10;;;;;;;17.97;52.64;153210.41;10458293;28;20060;-72
2023/09/23 10:43:53;;;;;;;0.15;0.15;;;;;;;18.22;51.29;153274.03;10458974;28;20044;-71
2023/09/23 10:48:56;;;;;;;0.08;0.00;;;;;;;18.37;50.24;153312.97;10459395;28;20045;-70
2023/09/23 10:53:59;;;;;;;0.10;0.10;;;;;;;18.21;51.29;153271.47;10457607;28;20120;-69
2023/09/23 10:59:04;;;;;;;0.20;0.10;;;;;;;17.83;51.44;153175.38;10440149;28;20053;-71
2023/09/23 11:04:06;;;;;;;0.40;0.20;;;;;;;17.52;51.41;153097.44;10459197;28;20072;-69
2023/09/23 11:09:08;;;;;;;0.20;0.10;;;;;;;18.01;52.19;153222.09;10462322;28;20120;-70
2023/09/23 11:14:14;;;;;;;0.73;0.73;;;;;;;17.94;50.38;153202.66;10456978;28;20485;-72
2023/09/23 11:19:17;;;;;;;0.10;0.10;;;;;;;17.81;53.01;153170.19;10469363;28;20080;-70
2023/09/23 11:24:19;;;;;;;0.00;0.00;;;;;;;17.74;52.94;153153.31;10449013;28;1204825;-70
2023/09/23 11:29:21;;;;;;;0.10;0.00;;;;;;;17.68;52.19;153136.41;10461945;28;20111;-70
2023/09/23 11:34:23;;;;;;;0.20;0.20;;;;;;;17.37;53.48;153059.84;10480756;28;20101;-69
2023/09/23 11:39:25;;;;;;;0.38;0.20;;;;;;;17.50;53.64;153091.00;10500000;28;20504;-70
2023/09/23 11:44:28;;;;;;;0.45;0.10;;;;;;;17.53;52.63;153100.09;10482255;28;20089;-70
2023/09/23 11:49:31;;;;;;;0.10;0.10;;;;;;;17.54;52.66;153102.66;10495320;28;20417;-72
2023/09/23 11:54:33;;;;;;;0.35;0.20;;;;;;;17.66;53.08;153132.47;10460096;28;20569;-73
2023/09/23 11:59:36;;;;;;;0.45;0.10;;;;;;;17.81;51.56;153170.19;10458187;28;20048;-71
2023/09/23 12:04:38;;;;;;;0.03;0.03;;;;;;;17.86;51.41;153184.47;10458504;28;20441;-70
2023/09/23 12:09:40;;;;;;;0.05;0.00;;;;;;;17.92;50.40;153198.72;10459049;28;20040;-70
2023/09/23 12:14:45;;;;;;;0.20;0.10;;;;;;;17.77;51.52;153161.09;10460047;28;20037;-70
2023/09/23 12:19:47;;;;;;;0.10;0.10;;;;;;;17.67;53.81;153133.81;10456971;28;20128;-71
2023/09/23 12:24:49;;;;;;;0.20;0.05;;;;;;;18.00;52.86;153219.50;10458486;28;20041;-72
2023/09/23 12:29:51;;;;;;;0.25;0.10;;;;;;;17.98;52.90;153213.03;10465440;28;20037;-71
2023/09/23 12:34:53;;;;;;;0.20;0.17;;;;;;;18.29;52.60;153293.53;10465153;28;20044;-69
2023/09/23 12:39:57;;;;;;;0.20;0.20;;;;;;;18.60;50.02;153371.44;10464313;28;20041;-73
2023/09/23 12:44:59;;;;;;;0.10;0.10;;;;;;;18.12;50.44;153250.69;10464225;28;20033;-71
2023/09/23 12:50:07;;;;;;;0.10;0.10;;;;;;;17.95;50.83;153205.25;10464957;28;20045;-71
2023/09/23 12:55:09;;;;;;;0.20;0.20;;;;;;;18.14;51.65;153254.56;10429964;28;20037;-71
2023/09/23 13:00:11;;;;;;;0.70;0.28;;;;;;;18.57;50.33;153364.94;10466666;28;20100;-71
2023/09/23 13:05:16;;;;;;;0.57;0.28;;;;;;;18.84;47.54;153433.81;10445059;28;20489;-72
2023/09/23 13:10:18;;;;;;;0.17;0.17;;;;;;;18.78;46.93;153416.94;10445985;28;20076;-73
2023/09/23 13:15:21;;;;;;;0.80;0.20;;;;;;;18.45;48.13;153333.75;10445518;28;20413;-73
2023/09/23 13:20:23;;;;;;;0.10;0.10;;;;;;;18.49;47.85;153342.84;10464255;28;20045;-73
2023/09/23 13:25:25;;;;;;;0.20;0.13;;;;;;;18.61;47.49;153374.03;10462257;28;20037;-72
2023/09/23 13:30:27;;;;;;;0.20;0.10;;;;;;;18.75;46.33;153410.44;10461921;28;20048;-72
2023/09/23 13:35:29;;;;;;;0.13;0.10;;;;;;;18.75;46.21;153409.13;10461334;28;20128;-73
2023/09/23 13:40:33;;;;;;;0.30;0.20;;;;;;;18.72;46.44;153401.34;10462251;28;20048;-72
2023/09/23 13:45:35;;;;;;;0.17;0.10;;;;;;;18.72;46.56;153402.63;10461820;28;20390;-72
2023/09/23 13:50:39;;;;;;;0.35;0.20;;;;;;;18.85;44.94;153435.09;10444473;28;20493;-73
2023/09/23 13:55:41;;;;;;;0.20;0.13;;;;;;;18.75;45.09;153409.13;10461745;28;20087;-73
2023/09/23 14:00:43;;;;;;;0.40;0.28;;;;;;;18.61;45.59;153375.31;10461513;28;20037;-71
2023/09/23 14:05:45;;;;;;;0.75;0.20;;;;;;;18.45;47.00;153333.75;10445385;28;20107;-73
2023/09/23 14:10:47;;;;;;;0.28;0.20;;;;;;;18.34;46.87;153306.50;10480813;28;20040;-74
2023/09/23 14:15:49;;;;;;;0.30;0.20;;;;;;;18.33;46.94;153302.63;10470603;28;20037;-72
2023/09/23 14:20:51;;;;;;;0.50;0.30;;;;;;;18.25;47.16;153283.13;10485542;28;20090;-71
2023/09/23 14:25:53;;;;;;;0.70;0.20;;;;;;;18.22;47.94;153275.34;10505011;28;20040;-72
2023/09/23 14:30:56;;;;;;;0.35;0.20;;;;;;;18.40;48.00;153320.78;10485421;28;20090;-73
2023/09/23 14:36:00;;;;;;;0.40;0.28;;;;;;;18.11;48.53;153248.09;10494303;28;20056;-70
2023/09/23 14:41:01;;;;;;;0.30;0.20;;;;;;;18.12;48.99;153250.69;10484939;28;20036;-75
2023/09/23 14:46:04;;;;;;;1.35;0.40;;;;;;;18.01;48.88;153220.81;10502970;28;20052;-75
2023/09/23 14:51:06;;;;;;;0.80;0.40;;;;;;;17.97;50.30;153211.69;10489421;28;20048;-70
2023/09/23 14:56:08;;;;;;;0.25;0.25;;;;;;;17.88;50.08;153189.69;10500530;28;20075;-70
2023/09/23 15:01:10;;;;;;;0.55;0.10;;;;;;;18.15;47.47;153258.47;10501006;28;20050;-70
2023/09/23 15:06:12;;;;;;;0.32;0.20;;;;;;;18.22;46.72;153275.34;10501168;28;20041;-71
2023/09/23 15:11:15;;;;;;;0.20;0.10;;;;;;;18.11;47.25;153246.81;10504420;28;20045;-70
2023/09/23 15:16:18;;;;;;;0.38;0.20;;;;;;;18.09;48.34;153242.88;10501746;28;20139;-72
2023/09/23 15:21:21;;;;;;;0.73;0.40;;;;;;;17.94;48.32;153203.94;10501733;28;20073;-71
2023/09/23 15:26:23;;;;;;;0.60;0.30;;;;;;;17.97;48.39;153211.69;10484730;28;20075;-73
2023/09/23 15:31:25;;;;;;;0.30;0.30;;;;;;;17.78;49.47;153162.41;10501709;28;20040;-71
2023/09/23 15:36:27;;;;;;;0.43;0.20;;;;;;;17.96;49.00;153209.13;10505904;28;20044;-71
2023/09/23 15:41:29;;;;;;;0.10;0.10;;;;;;;17.95;49.91;153205.25;10483433;28;20047;-72
2023/09/23 15:46:31;;;;;;;0.88;0.40;;;;;;;17.93;48.85;153201.38;10483066;28;20041;-72
2023/09/23 15:51:33;;;;;;;0.30;0.20;;;;;;;17.92;49.36;153197.44;10500342;28;20040;-73
2023/09/23 15:56:39;;;;;;;0.95;0.60;;;;;;;17.64;50.98;153127.31;10485113;28;20443;-72
2023/09/23 16:01:41;;;;;;;2.17;1.02;;;;;;;17.36;51.83;153057.25;10489637;28;20095;-74
2023/09/23 16:06:43;;;;;;;0.43;0.40;;;;;;;17.14;53.04;153001.47;10509047;28;20057;-73
2023/09/23 16:11:45;;;;;;;0.77;0.50;;;;;;;17.49;51.33;153089.69;10475588;28;20136;-72
2023/09/23 16:16:47;;;;;;;2.50;1.52;;;;;;;17.53;52.12;153098.75;10507833;28;20044;-72
2023/09/23 16:21:51;;;;;;;6.25;3.78;;;;;;;17.20;54.29;153015.72;10509762;28;20041;-72
2023/09/23 16:26:53;;;;;;;1.83;0.98;;;;;;;17.17;54.28;153006.63;10490066;28;20044;-72
2023/09/23 16:31:54;;;;;;;1.08;0.80;;;;;;;17.26;54.85;153029.97;10507750;28;20575;-73
2023/09/23 16:36:56;;;;;;;0.22;0.10;;;;;;;17.54;52.10;153101.38;10507242;28;20052;-72
2023/09/23 16:41:58;;;;;;;0.47;0.40;;;;;;;17.11;54.20;152992.38;10509952;28;20040;-72
2023/09/23 16:47:00;;;;;;;1.33;0.75;;;;;;;16.95;54.70;152950.84;10506342;28;20032;-71
2023/09/23 16:52:02;;;;;;;2.05;0.93;;;;;;;16.88;55.15;152934.00;10505046;28;20515;-72
2023/09/23 16:57:05;;;;;;;2.88;1.50;;;;;;;16.59;56.38;152861.31;10505476;28;20049;-71
2023/09/23 17:02:08;;;;;;;1.08;0.52;;;;;;;16.59;56.00;152860.00;10490070;28;20090;-72
2023/09/23 17:07:13;;;;;;;1.00;0.40;;;;;;;16.59;55.53;152861.31;10506335;28;20389;-72
2023/09/23 17:12:15;;;;;;;0.85;0.60;;;;;;;16.38;57.06;152806.88;10505752;28;20039;-72
2023/09/23 17:17:17;;;;;;;0.60;0.40;;;;;;;16.30;56.16;152786.13;10473274;28;20041;-73
2023/09/23 17:22:19;;;;;;;1.30;0.45;;;;;;;16.24;56.49;152771.81;10469679;28;20429;-73
2023/09/23 17:27:21;;;;;;;0.30;0.30;;;;;;;16.06;57.25;152726.44;10466767;28;20091;-73
2023/09/23 17:32:23;;;;;;;0.57;0.30;;;;;;;16.01;57.08;152712.22;10505838;28;20098;-72
2023/09/23 17:37:25;;;;;;;0.20;0.20;;;;;;;15.77;57.81;152651.31;10458051;28;20103;-73
2023/09/23 17:42:27;;;;;;;1.30;0.80;;;;;;;15.58;58.79;152603.28;10466339;28;20040;-74
2023/09/23 17:47:28;;;;;;;0.73;0.35;;;;;;;15.58;58.84;152603.28;10494926;28;20029;-74
2023/09/23 17:52:30;;;;;;;0.60;0.40;;;;;;;15.39;59.89;152555.34;10505000;28;20452;-74
2023/09/23 17:57:32;;;;;;;0.43;0.30;;;;;;;15.21;60.60;152510.00;10489901;28;20041;-74
2023/09/23 18:02:34;;;;;;;0.80;0.40;;;;;;;15.07;61.55;152475.03;10506786;28;20044;-74
2023/09/23 18:07:38;;;;;;;0.60;0.60;;;;;;;15.05;61.80;152469.84;10507044;28;20052;-73
2023/09/23 18:12:40;;;;;;;0.60;0.60;;;;;;;15.03;61.64;152464.66;10504021;28;20131;-74
2023/09/23 18:17:42;;;;;;;0.75;0.50;;;;;;;14.70;64.26;152379.16;10479533;28;20045;-73
2023/09/23 18:22:45;;;;;;;0.70;0.55;;;;;;;14.69;63.95;152376.56;10469711;28;20099;-74
2023/09/23 18:27:47;;;;;;;0.98;0.60;;;;;;;14.76;63.99;152396.00;10464149;28;20076;-74
2023/09/23 18:32:49;;;;;;;0.98;0.70;;;;;;;14.71;64.55;152381.78;10486964;28;20048;-71
2023/09/23 18:37:52;;;;;;;1.27;0.65;;;;;;;14.55;65.64;152341.59;10450566;28;20073;-69
2023/09/23 18:42:54;;;;;;;0.75;0.60;;;;;;;14.53;65.35;152336.44;10459780;28;20532;-71
2023/09/23 18:47:56;;;;;;;0.75;0.60;;;;;;;14.34;66.14;152289.78;10443427;28;20068;-71
2023/09/23 18:53:18;;;;;;;0.68;0.57;;;;;;;14.20;67.01;152253.50;10482515;28;20055;-71
2023/09/23 18:58:20;;;;;;;0.73;0.50;;;;;;;14.07;67.82;152221.13;10502103;28;20141;-71
2023/09/23 19:03:22;;;;;;;0.82;0.68;;;;;;;14.16;67.34;152243.13;10502244;28;20135;-70
2023/09/23 19:08:24;;;;;;;1.15;0.70;;;;;;;14.11;67.53;152231.50;10504251;28;20067;-70
2023/09/23 19:13:29;;;;;;;1.50;0.80;;;;;;;14.02;68.03;152208.19;10509374;28;20044;-73
2023/09/23 19:18:31;;;;;;;0.60;0.43;;;;;;;13.93;68.19;152183.59;10504014;28;20040;-74
2023/09/23 19:23:33;;;;;;;0.63;0.60;;;;;;;13.91;68.53;152179.75;10505132;28;20037;-73
2023/09/23 19:28:36;;;;;;;1.45;0.65;;;;;;;13.65;69.94;152112.44;10484227;28;20059;-73
2023/09/23 19:33:39;;;;;;;0.70;0.45;;;;;;;13.78;68.92;152146.09;10503013;28;20052;-72
2023/09/23 19:38:41;;;;;;;0.70;0.50;;;;;;;13.84;68.62;152162.91;10494557;28;20501;-71
2023/09/23 19:43:43;;;;;;;1.75;1.10;;;;;;;14.03;67.70;152209.47;10509594;28;20048;-71
2023/09/23 19:48:46;;;;;;;0.95;0.70;;;;;;;13.99;67.77;152199.13;10475919;28;20047;-72
2023/09/23 19:53:48;;;;;;;1.00;0.60;;;;;;;14.02;67.38;152206.91;10508178;28;20442;-72
2023/09/23 19:58:50;;;;;;;0.95;0.73;;;;;;;14.04;67.15;152213.41;10511020;28;20127;-71
2023/09/23 20:03:52;;;;;;;0.80;0.60;;;;;;;13.93;67.82;152183.59;10489833;28;20484;-71
2023/09/23 20:08:54;;;;;;;0.73;0.52;;;;;;;13.88;68.20;152173.25;10507617;28;20051;-72
2023/09/23 20:13:56;;;;;;;0.68;0.50;;;;;;;13.78;68.42;152146.09;10507690;28;20144;-72
2023/09/23 20:18:59;;;;;;;0.85;0.70;;;;;;;13.67;69.20;152117.59;10492011;28;20045;-72
2023/09/23 20:24:02;;;;;;;0.82;0.73;;;;;;;13.43;70.56;152056.78;10489215;28;20047;-72
2023/09/23 20:29:04;;;;;;;0.70;0.70;;;;;;;13.43;70.50;152058.09;10507077;28;20496;-71
2023/09/23 20:34:06;;;;;;;0.95;0.63;;;;;;;13.45;69.99;152063.25;10507076;28;20044;-72
2023/09/23 20:39:08;;;;;;;1.02;0.52;;;;;;;13.35;70.23;152038.66;10508331;28;20131;-72
2023/09/23 20:44:10;;;;;;;0.50;0.40;;;;;;;13.14;71.24;151984.28;10509170;28;20040;-71
2023/09/23 20:49:14;;;;;;;0.65;0.50;;;;;;;13.12;71.78;151980.41;10506133;28;20103;-72
2023/09/23 20:54:15;;;;;;;0.70;0.60;;;;;;;12.87;73.61;151915.72;10506112;28;20048;-72
2023/09/23 20:59:17;;;;;;;1.17;0.60;;;;;;;12.62;74.79;151853.66;10506378;28;20044;-72
2023/09/23 21:04:19;;;;;;;1.67;1.15;;;;;;;12.46;75.99;151811.00;10507930;28;20044;-72
2023/09/23 21:09:21;;;;;;;0.45;0.30;;;;;;;12.42;75.86;151801.94;10486178;28;20040;-72
2023/09/23 21:14:25;;;;;;;0.57;0.50;;;;;;;12.46;75.69;151812.28;10505192;28;20072;-72
2023/09/23 21:19:27;;;;;;;0.73;0.60;;;;;;;12.27;76.22;151764.44;10504912;28;20381;-72
2023/09/23 21:24:29;;;;;;;0.57;0.40;;;;;;;12.15;77.29;151732.13;10506776;28;20079;-72
2023/09/23 21:29:31;;;;;;;1.58;0.70;;;;;;;12.03;77.30;151703.66;10486291;28;20074;-72
2023/09/23 21:34:33;;;;;;;1.23;0.60;;;;;;;11.99;77.96;151692.03;10504395;28;20114;-72
2023/09/23 21:39:35;;;;;;;1.02;0.70;;;;;;;11.90;79.46;151668.78;10505012;28;20087;-72
2023/09/23 21:44:36;;;;;;;0.73;0.60;;;;;;;11.85;79.21;151658.44;10503394;28;20040;-72
2023/09/23 21:49:38;;;;;;;1.02;0.50;;;;;;;11.82;79.23;151650.72;10506549;28;20047;-72
2023/09/23 21:54:40;;;;;;;0.73;0.50;;;;;;;11.72;79.94;151623.50;10502351;28;20062;-72
2023/09/23 21:59:43;;;;;;;1.67;0.70;;;;;;;11.67;79.77;151610.56;10484241;28;20382;-71
2023/09/23 22:04:46;;;;;;;0.88;0.50;;;;;;;11.84;78.19;151655.84;10503365;28;20045;-72
2023/09/23 22:09:48;;;;;;;0.82;0.55;;;;;;;12.01;77.13;151698.50;10487988;28;20487;-71
2023/09/23 22:14:49;;;;;;;2.28;0.75;;;;;;;12.27;75.60;151764.44;10502808;28;20101;-72
2023/09/23 22:19:52;;;;;;;0.65;0.47;;;;;;;12.08;76.85;151715.28;10500356;28;20115;-72
2023/09/23 22:24:54;;;;;;;0.65;0.50;;;;;;;11.86;78.28;151661.06;10500909;28;20041;-72
2023/09/23 22:30:00;;;;;;;1.17;0.65;;;;;;;11.67;80.04;151611.88;10503657;28;20040;-72
2023/09/23 22:35:02;;;;;;;1.08;0.70;;;;;;;11.90;79.47;151668.78;10500547;28;20041;-72
2023/09/23 22:40:09;;;;;;;0.50;0.47;;;;;;;12.22;76.18;151750.19;10500238;28;20048;-71
2023/09/23 22:45:12;;;;;;;1.50;0.60;;;;;;;12.14;76.22;151730.84;10500693;28;20056;-71
2023/09/23 22:50:28;;;;;;;1.42;0.40;;;;;;;11.89;77.39;151666.19;10501836;28;20485;-72
2023/09/23 22:55:32;;;;;;;1.10;0.60;;;;;;;11.88;77.55;151663.63;10501339;28;20037;-73
2023/09/23 23:00:35;;;;;;;1.15;0.50;;;;;;;11.99;77.10;151693.31;10500472;28;20516;-71
2023/09/23 23:05:38;;;;;;;0.45;0.40;;;;;;;11.75;78.16;151632.53;10499688;28;20063;-72
2023/09/23 23:10:40;;;;;;;1.88;0.60;;;;;;;11.56;79.82;151583.47;10481133;28;20055;-72